Time;durP1;ratioP1;P1;durP2;ratioP2;P2;SDS_P1;SDS_P2;PMS_P1;PMS_P2;Temp;Humidity;BMP_temperature;BMP_pressure;BME280_temperature;BME280_humidity;BME280_pressure;Samples;Min_cycle;Max_cycle;Signal;HPM_P1;HPM_P2
2022/04/14 00:01:59;;;;;;;41.55;21.92;;;;;;;;;;5118546;27;20660;-65
2022/04/14 00:04:24;;;;;;;42.42;22.48;;;;;;;;;;5114719;27;20058;-71
2022/04/14 00:06:50;;;;;;;46.25;23.60;;;;;;;;;;5121905;27;20130;-70
2022/04/14 00:09:15;;;;;;;57.53;28.25;;;;;;;;;;5121278;27;20034;-65
2022/04/14 00:11:41;;;;;;;31.50;16.98;;;;;;;;;;5121753;27;20035;-70
2022/04/14 00:14:07;;;;;;;39.42;20.35;;;;;;;;;;5116611;27;20015;-64
2022/04/14 00:16:32;;;;;;;37.00;19.35;;;;;;;;;;5117474;27;20068;-65
2022/04/14 00:18:57;;;;;;;35.47;20.55;;;;;;;;;;5111253;27;20015;-65
2022/04/14 00:21:23;;;;;;;29.35;16.95;;;;;;;;;;5115620;27;20449;-65
2022/04/14 00:23:48;;;;;;;28.85;16.38;;;;;;;;;;5116418;27;20035;-64
2022/04/14 00:26:13;;;;;;;30.70;17.08;;;;;;;;;;5122092;27;20031;-71
2022/04/14 00:28:39;;;;;;;35.00;19.52;;;;;;;;;;5121249;27;20088;-67
2022/04/14 00:31:04;;;;;;;27.75;14.45;;;;;;;;;;5121241;27;20115;-66
2022/04/14 00:33:30;;;;;;;43.38;26.20;;;;;;;;;;5120758;27;20035;-70
2022/04/14 00:35:55;;;;;;;55.10;30.42;;;;;;;;;;5121436;27;20433;-69
2022/04/14 00:38:20;;;;;;;45.10;27.25;;;;;;;;;;5121855;27;20027;-65
2022/04/14 00:40:47;;;;;;;45.92;26.02;;;;;;;;;;5119840;27;21349;-66
2022/04/14 00:43:12;;;;;;;30.58;15.60;;;;;;;;;;5120392;27;20027;-67
2022/04/14 00:45:38;;;;;;;20.33;10.45;;;;;;;;;;5121595;27;20334;-66
2022/04/14 00:48:03;;;;;;;15.50;8.45;;;;;;;;;;5121413;27;20019;-71
2022/04/14 00:50:29;;;;;;;14.35;9.10;;;;;;;;;;5121237;27;20091;-65
2022/04/14 00:52:54;;;;;;;17.10;8.75;;;;;;;;;;5120213;27;20028;-70
2022/04/14 00:55:19;;;;;;;25.77;13.02;;;;;;;;;;5120287;27;20023;-64
2022/04/14 00:57:46;;;;;;;21.55;11.50;;;;;;;;;;5119040;27;20051;-67
2022/04/14 01:00:12;;;;;;;18.83;13.02;;;;;;;;;;5120733;27;20120;-65
2022/04/14 01:02:37;;;;;;;21.23;13.18;;;;;;;;;;5111442;27;20406;-65
2022/04/14 01:05:04;;;;;;;28.63;17.88;;;;;;;;;;5119640;27;20046;-70
2022/04/14 01:07:29;;;;;;;31.55;17.20;;;;;;;;;;5120505;27;20023;-63
2022/04/14 01:09:55;;;;;;;23.50;12.75;;;;;;;;;;5120231;27;20052;-65
2022/04/14 01:12:21;;;;;;;21.27;12.38;;;;;;;;;;5120516;27;20026;-66
2022/04/14 01:14:46;;;;;;;21.92;11.95;;;;;;;;;;5119105;27;20027;-66
2022/04/14 01:17:11;;;;;;;18.20;9.98;;;;;;;;;;5119622;27;20027;-65
2022/04/14 01:19:37;;;;;;;30.45;16.38;;;;;;;;;;5119985;27;20389;-68
2022/04/14 01:22:12;;;;;;;26.48;14.13;;;;;;;;;;5120108;27;20456;-69
2022/04/14 01:24:38;;;;;;;24.60;12.75;;;;;;;;;;5120193;27;20441;-69
2022/04/14 01:27:04;;;;;;;29.92;18.50;;;;;;;;;;5119615;27;20042;-69
2022/04/14 01:29:30;;;;;;;27.00;16.48;;;;;;;;;;5120110;27;20034;-69
2022/04/14 01:31:56;;;;;;;27.50;14.85;;;;;;;;;;5111029;27;20422;-65
2022/04/14 01:34:21;;;;;;;27.40;16.08;;;;;;;;;;5120463;27;20361;-68
2022/04/14 01:36:47;;;;;;;20.00;12.75;;;;;;;;;;5120015;27;20023;-67
2022/04/14 01:39:13;;;;;;;40.13;22.13;;;;;;;;;;5119634;27;20054;-65
2022/04/14 01:41:42;;;;;;;39.42;22.50;;;;;;;;;;5119476;27;20038;-64
2022/04/14 01:44:08;;;;;;;38.17;20.87;;;;;;;;;;5119921;27;20437;-64
2022/04/14 01:46:34;;;;;;;31.35;18.52;;;;;;;;;;5118894;27;20247;-69
2022/04/14 01:49:02;;;;;;;28.98;15.45;;;;;;;;;;5120872;27;20287;-64
2022/04/14 01:51:27;;;;;;;24.98;15.20;;;;;;;;;;5120327;27;20023;-65
2022/04/14 01:53:53;;;;;;;23.67;14.55;;;;;;;;;;5119915;27;20038;-64
2022/04/14 01:56:18;;;;;;;21.38;13.80;;;;;;;;;;5117732;27;20015;-65
2022/04/14 01:58:44;;;;;;;25.67;14.55;;;;;;;;;;5119897;27;20942;-64
2022/04/14 02:01:11;;;;;;;21.70;12.98;;;;;;;;;;5118742;27;20132;-66
2022/04/14 02:03:36;;;;;;;30.73;15.93;;;;;;;;;;5117640;27;20066;-65
2022/04/14 02:06:02;;;;;;;32.15;15.57;;;;;;;;;;5119748;27;20034;-65
2022/04/14 02:08:27;;;;;;;48.90;23.35;;;;;;;;;;5119925;27;20030;-64
2022/04/14 02:10:52;;;;;;;48.90;24.30;;;;;;;;;;5118823;27;20034;-64
2022/04/14 02:13:18;;;;;;;56.22;25.63;;;;;;;;;;5119567;27;20026;-65
2022/04/14 02:15:43;;;;;;;60.55;28.90;;;;;;;;;;5118270;27;20412;-65
2022/04/14 02:18:08;;;;;;;57.00;26.88;;;;;;;;;;5119068;27;20042;-68
2022/04/14 02:20:34;;;;;;;62.13;26.38;;;;;;;;;;5107424;27;20042;-65
2022/04/14 02:22:59;;;;;;;60.05;26.35;;;;;;;;;;5108676;28;20147;-65
2022/04/14 02:25:24;;;;;;;48.75;22.48;;;;;;;;;;5108729;28;20114;-71
2022/04/14 02:27:50;;;;;;;45.40;22.85;;;;;;;;;;5107596;28;20446;-66
2022/04/14 02:30:15;;;;;;;45.70;22.80;;;;;;;;;;5110754;28;20035;-65
2022/04/14 02:32:40;;;;;;;43.58;22.50;;;;;;;;;;5117836;28;20345;-64
2022/04/14 02:35:06;;;;;;;41.08;20.83;;;;;;;;;;5119192;28;20409;-65
2022/04/14 02:37:31;;;;;;;59.83;26.40;;;;;;;;;;5119522;28;20106;-65
2022/04/14 02:39:56;;;;;;;67.18;32.35;;;;;;;;;;5119278;28;20131;-64
2022/04/14 02:42:22;;;;;;;118.05;52.85;;;;;;;;;;5115500;28;20098;-64
2022/04/14 02:44:47;;;;;;;128.90;56.42;;;;;;;;;;5109241;27;20364;-65
2022/04/14 02:47:12;;;;;;;148.43;60.80;;;;;;;;;;5122040;27;20045;-71
2022/04/14 02:49:38;;;;;;;121.18;52.88;;;;;;;;;;5104925;27;20406;-65
2022/04/14 02:52:03;;;;;;;117.35;49.17;;;;;;;;;;5122537;27;20035;-73
2022/04/14 02:54:29;;;;;;;115.78;49.67;;;;;;;;;;5122967;27;20503;-65
2022/04/14 02:56:54;;;;;;;124.95;53.88;;;;;;;;;;5123775;27;20084;-65
2022/04/14 02:59:19;;;;;;;128.75;52.35;;;;;;;;;;5123172;27;20031;-65
2022/04/14 03:01:44;;;;;;;126.25;52.63;;;;;;;;;;5124072;27;20557;-65
2022/04/14 03:04:10;;;;;;;108.07;45.45;;;;;;;;;;5121408;27;20026;-64
2022/04/14 03:06:35;;;;;;;109.50;46.53;;;;;;;;;;5114891;27;20099;-66
2022/04/14 03:09:00;;;;;;;83.25;35.42;;;;;;;;;;5117726;27;20079;-64
2022/04/14 03:11:26;;;;;;;51.20;24.25;;;;;;;;;;5118631;27;20099;-65
2022/04/14 03:13:51;;;;;;;44.60;20.10;;;;;;;;;;5123477;27;20102;-65
2022/04/14 03:16:16;;;;;;;37.92;16.98;;;;;;;;;;5122760;27;21152;-71
2022/04/14 03:18:41;;;;;;;34.00;17.60;;;;;;;;;;5122221;27;20034;-68
2022/04/14 03:21:07;;;;;;;114.15;47.88;;;;;;;;;;5121383;27;20035;-66
2022/04/14 03:23:32;;;;;;;89.13;36.15;;;;;;;;;;5111585;27;20513;-72
2022/04/14 03:25:57;;;;;;;96.55;40.10;;;;;;;;;;5111752;27;20036;-65
2022/04/14 03:28:23;;;;;;;102.43;43.33;;;;;;;;;;5111131;27;20100;-69
2022/04/14 03:30:48;;;;;;;102.80;44.40;;;;;;;;;;5111537;27;20019;-65
2022/04/14 03:33:13;;;;;;;112.20;43.75;;;;;;;;;;5111803;27;20019;-64
2022/04/14 03:35:39;;;;;;;78.05;33.42;;;;;;;;;;5112437;27;20023;-63
2022/04/14 03:38:04;;;;;;;75.57;30.83;;;;;;;;;;5118343;27;20027;-68
2022/04/14 03:40:29;;;;;;;75.72;30.45;;;;;;;;;;5116050;27;20330;-66
2022/04/14 03:42:55;;;;;;;65.47;25.70;;;;;;;;;;5122092;27;20033;-64
2022/04/14 03:45:20;;;;;;;43.17;18.75;;;;;;;;;;5120087;27;20019;-70
2022/04/14 03:47:46;;;;;;;40.55;19.08;;;;;;;;;;5108658;27;20055;-68
2022/04/14 03:50:11;;;;;;;67.72;29.30;;;;;;;;;;5110121;27;20110;-65
2022/04/14 03:52:36;;;;;;;70.00;31.38;;;;;;;;;;5110652;27;20023;-65
2022/04/14 03:55:02;;;;;;;64.68;29.80;;;;;;;;;;5109782;27;20127;-65
2022/04/14 03:57:27;;;;;;;52.10;24.40;;;;;;;;;;5108654;27;20629;-64
2022/04/14 03:59:52;;;;;;;55.22;24.20;;;;;;;;;;5118802;27;20027;-64
2022/04/14 04:02:18;;;;;;;48.47;21.98;;;;;;;;;;5115638;27;20035;-64
2022/04/14 04:04:43;;;;;;;54.50;21.65;;;;;;;;;;5111659;27;20463;-64
2022/04/14 04:07:08;;;;;;;50.13;20.95;;;;;;;;;;5111848;27;20027;-68
2022/04/14 04:09:34;;;;;;;46.47;22.85;;;;;;;;;;5117418;27;20038;-66
2022/04/14 04:11:59;;;;;;;80.43;35.45;;;;;;;;;;5114190;27;20023;-70
2022/04/14 04:14:25;;;;;;;74.47;32.65;;;;;;;;;;5115292;27;20110;-65
2022/04/14 04:16:50;;;;;;;90.43;42.15;;;;;;;;;;5120734;27;20784;-64
2022/04/14 04:19:16;;;;;;;88.45;41.42;;;;;;;;;;5120340;27;20027;-63
2022/04/14 04:21:41;;;;;;;102.53;49.10;;;;;;;;;;5121345;27;20031;-63
2022/04/14 04:24:06;;;;;;;99.50;45.72;;;;;;;;;;5121047;27;20026;-69
2022/04/14 04:26:32;;;;;;;118.35;47.88;;;;;;;;;;5121806;27;20119;-65
2022/04/14 04:28:57;;;;;;;102.53;43.97;;;;;;;;;;5112029;27;20150;-69
2022/04/14 04:31:22;;;;;;;94.25;50.05;;;;;;;;;;5110822;27;20030;-67
2022/04/14 04:33:51;;;;;;;108.10;50.83;;;;;;;;;;5111760;27;20035;-65
2022/04/14 04:36:16;;;;;;;86.93;45.00;;;;;;;;;;5109759;27;20535;-66
2022/04/14 04:38:42;;;;;;;103.45;48.75;;;;;;;;;;5120628;27;20031;-66
2022/04/14 04:41:07;;;;;;;119.85;56.00;;;;;;;;;;5101996;27;20188;-70
2022/04/14 04:43:32;;;;;;;121.38;58.35;;;;;;;;;;5120946;27;20438;-66
2022/04/14 04:45:58;;;;;;;75.18;41.15;;;;;;;;;;5110885;27;20166;-66
2022/04/14 04:48:23;;;;;;;109.50;63.35;;;;;;;;;;5119808;27;20709;-68
2022/04/14 04:50:49;;;;;;;117.32;66.50;;;;;;;;;;5119844;27;20054;-67
2022/04/14 04:53:14;;;;;;;136.15;72.93;;;;;;;;;;5120074;27;20031;-65
2022/04/14 04:55:39;;;;;;;147.68;90.72;;;;;;;;;;5121826;27;20038;-65
2022/04/14 04:58:05;;;;;;;94.10;57.15;;;;;;;;;;5120276;27;20052;-67
2022/04/14 05:00:31;;;;;;;72.72;42.70;;;;;;;;;;5120114;27;20180;-65
2022/04/14 05:12:04;;;;;;;28.25;16.02;;;;;;;;;;5129880;27;20126;-66
2022/04/14 05:14:30;;;;;;;59.70;38.00;;;;;;;;;;5119741;27;20114;-63
2022/04/14 05:16:55;;;;;;;40.00;25.90;;;;;;;;;;5120529;27;20023;-64
2022/04/14 05:19:20;;;;;;;30.63;20.67;;;;;;;;;;5118023;27;20031;-67
2022/04/14 05:21:48;;;;;;;17.95;11.57;;;;;;;;;;5119414;27;20035;-67
2022/04/14 05:24:13;;;;;;;16.23;10.52;;;;;;;;;;5120411;27;20026;-64
2022/04/14 05:26:39;;;;;;;32.97;24.35;;;;;;;;;;5121314;27;20023;-65
2022/04/14 05:29:04;;;;;;;58.15;36.10;;;;;;;;;;5120231;27;20368;-69
2022/04/14 05:31:29;;;;;;;68.68;40.63;;;;;;;;;;5100621;27;20437;-62
2022/04/14 05:33:55;;;;;;;55.30;32.55;;;;;;;;;;5101897;27;20033;-65
2022/04/14 05:36:21;;;;;;;66.38;39.15;;;;;;;;;;5120852;27;20027;-63
2022/04/14 05:38:46;;;;;;;77.68;39.83;;;;;;;;;;5120455;27;20080;-68
2022/04/14 05:41:11;;;;;;;70.43;37.15;;;;;;;;;;5120317;27;20043;-65
2022/04/14 05:43:37;;;;;;;62.13;33.60;;;;;;;;;;5113313;27;20084;-64
2022/04/14 05:46:03;;;;;;;21.35;11.93;;;;;;;;;;5118117;27;20060;-63
2022/04/14 05:48:28;;;;;;;17.13;10.60;;;;;;;;;;5118018;27;20487;-63
2022/04/14 05:50:54;;;;;;;25.75;15.82;;;;;;;;;;5119398;27;20049;-69
2022/04/14 05:53:24;;;;;;;35.40;19.10;;;;;;;;;;5119920;27;20030;-63
2022/04/14 05:55:50;;;;;;;33.10;16.23;;;;;;;;;;5120268;27;20058;-64
2022/04/14 05:58:16;;;;;;;32.72;18.42;;;;;;;;;;5119814;27;20131;-68
2022/04/14 06:00:42;;;;;;;28.52;15.57;;;;;;;;;;5120158;27;20127;-66
2022/04/14 06:03:07;;;;;;;26.38;16.75;;;;;;;;;;5115247;27;20715;-64
2022/04/14 06:05:33;;;;;;;26.73;15.82;;;;;;;;;;5111885;27;20038;-64
2022/04/14 06:07:59;;;;;;;22.50;14.25;;;;;;;;;;5112995;27;20035;-65
2022/04/14 06:10:25;;;;;;;26.02;15.13;;;;;;;;;;5112107;27;20515;-66
2022/04/14 06:12:50;;;;;;;24.52;16.80;;;;;;;;;;5107752;27;20353;-69
2022/04/14 06:15:16;;;;;;;34.88;22.75;;;;;;;;;;5108044;27;20026;-66
2022/04/14 06:17:42;;;;;;;37.20;23.55;;;;;;;;;;5107918;27;20023;-64
2022/04/14 06:20:08;;;;;;;39.75;24.73;;;;;;;;;;5107847;27;20049;-64
2022/04/14 06:22:38;;;;;;;40.03;24.58;;;;;;;;;;5089318;28;20103;-65
2022/04/14 06:25:04;;;;;;;35.42;21.88;;;;;;;;;;5107091;28;20449;-67
2022/04/14 06:27:29;;;;;;;36.75;22.92;;;;;;;;;;5104914;28;20019;-64
2022/04/14 06:29:54;;;;;;;31.05;20.02;;;;;;;;;;5106911;28;20469;-64
2022/04/14 06:32:20;;;;;;;27.85;16.98;;;;;;;;;;5107169;28;20025;-72
2022/04/14 06:34:45;;;;;;;34.35;19.92;;;;;;;;;;5126618;28;20110;-66
2022/04/14 06:37:10;;;;;;;33.72;19.67;;;;;;;;;;5105271;27;20052;-73
2022/04/14 06:39:36;;;;;;;28.08;17.98;;;;;;;;;;5087229;28;20059;-68
2022/04/14 06:42:01;;;;;;;29.23;18.73;;;;;;;;;;5087578;28;20040;-66
2022/04/14 06:44:26;;;;;;;22.58;15.85;;;;;;;;;;5090857;28;20343;-67
2022/04/14 06:46:52;;;;;;;19.48;13.20;;;;;;;;;;5094081;28;20035;-67
2022/04/14 06:49:17;;;;;;;14.48;11.32;;;;;;;;;;5097219;28;20354;-68
2022/04/14 06:51:42;;;;;;;16.55;10.70;;;;;;;;;;5096573;28;20535;-68
2022/04/14 06:54:08;;;;;;;14.95;9.73;;;;;;;;;;5089965;28;20023;-70
2022/04/14 06:56:33;;;;;;;12.63;8.15;;;;;;;;;;5097780;28;20340;-69
2022/04/14 06:58:58;;;;;;;14.98;9.98;;;;;;;;;;5099212;28;20043;-70
2022/04/14 07:01:24;;;;;;;22.23;15.75;;;;;;;;;;5096527;28;20036;-75
2022/04/14 07:03:49;;;;;;;34.90;21.83;;;;;;;;;;5085546;28;20490;-65
2022/04/14 07:06:14;;;;;;;41.40;25.42;;;;;;;;;;5086727;28;20164;-71
2022/04/14 07:08:40;;;;;;;41.17;26.63;;;;;;;;;;5069587;28;20023;-69
2022/04/14 07:11:05;;;;;;;35.30;23.45;;;;;;;;;;5087317;28;20035;-69
2022/04/14 07:13:30;;;;;;;34.28;21.90;;;;;;;;;;5085982;28;20031;-70
2022/04/14 07:15:57;;;;;;;30.08;20.80;;;;;;;;;;5086080;28;20023;-70
2022/04/14 07:18:23;;;;;;;39.13;24.02;;;;;;;;;;5087070;28;20390;-73
2022/04/14 07:20:48;;;;;;;27.10;16.95;;;;;;;;;;5090890;28;20031;-67
2022/04/14 07:23:14;;;;;;;27.65;18.75;;;;;;;;;;5089983;28;20035;-67
2022/04/14 07:25:39;;;;;;;16.17;10.93;;;;;;;;;;5105119;28;20024;-66
2022/04/14 07:28:05;;;;;;;11.70;7.70;;;;;;;;;;5101969;28;20024;-68
2022/04/14 07:30:31;;;;;;;20.20;11.48;;;;;;;;;;5103979;28;20099;-70
2022/04/14 07:32:57;;;;;;;13.38;7.68;;;;;;;;;;5102103;28;20446;-65
2022/04/14 07:35:22;;;;;;;9.43;6.15;;;;;;;;;;5101026;28;20152;-69
2022/04/14 07:37:48;;;;;;;9.23;6.47;;;;;;;;;;5095799;28;20025;-65
2022/04/14 07:40:14;;;;;;;13.55;7.95;;;;;;;;;;5072724;28;20034;-70
2022/04/14 07:42:40;;;;;;;21.30;12.85;;;;;;;;;;5091097;28;20019;-69
2022/04/14 07:45:06;;;;;;;17.25;9.57;;;;;;;;;;5099031;28;20119;-68
2022/04/14 07:47:32;;;;;;;16.42;9.18;;;;;;;;;;5102263;28;20028;-67
2022/04/14 07:49:57;;;;;;;16.85;9.05;;;;;;;;;;5096419;28;20019;-69
2022/04/14 07:52:23;;;;;;;9.93;6.70;;;;;;;;;;5089574;28;20063;-67
2022/04/14 07:54:48;;;;;;;11.00;7.35;;;;;;;;;;5094743;28;20102;-65
2022/04/14 07:57:13;;;;;;;7.53;5.57;;;;;;;;;;5099795;28;20147;-67
2022/04/14 07:59:39;;;;;;;6.85;4.93;;;;;;;;;;5100351;28;20036;-66
2022/04/14 08:02:04;;;;;;;11.32;6.78;;;;;;;;;;5101051;28;20039;-66
2022/04/14 08:04:31;;;;;;;8.07;4.88;;;;;;;;;;5102118;28;20738;-66
2022/04/14 08:06:56;;;;;;;12.15;4.90;;;;;;;;;;5102191;28;20030;-67
2022/04/14 08:09:21;;;;;;;8.52;5.22;;;;;;;;;;5100042;28;20019;-69
2022/04/14 08:11:47;;;;;;;7.65;4.65;;;;;;;;;;5100750;28;20019;-70
2022/04/14 08:14:12;;;;;;;7.03;4.43;;;;;;;;;;5091865;28;20118;-69
2022/04/14 08:16:38;;;;;;;7.15;4.15;;;;;;;;;;5099242;28;20434;-69
2022/04/14 08:19:03;;;;;;;6.75;4.28;;;;;;;;;;5091454;28;20349;-68
2022/04/14 08:21:29;;;;;;;13.50;7.22;;;;;;;;;;5101424;28;20127;-68
2022/04/14 08:23:54;;;;;;;7.40;4.32;;;;;;;;;;5094416;28;20027;-67
2022/04/14 08:26:21;;;;;;;6.28;4.65;;;;;;;;;;5097359;28;20122;-69
2022/04/14 08:28:47;;;;;;;9.35;5.38;;;;;;;;;;5089660;28;20085;-67
2022/04/14 08:31:14;;;;;;;8.27;4.18;;;;;;;;;;5092439;28;20039;-69
2022/04/14 08:33:39;;;;;;;5.03;4.22;;;;;;;;;;5098311;28;20059;-72
2022/04/14 08:36:05;;;;;;;6.53;3.58;;;;;;;;;;5099102;28;20058;-70
2022/04/14 08:38:30;;;;;;;5.10;3.80;;;;;;;;;;5071077;28;20059;-70
2022/04/14 08:41:01;;;;;;;6.47;4.40;;;;;;;;;;5096037;28;20027;-72
2022/04/14 08:43:33;;;;;;;7.22;4.18;;;;;;;;;;5081388;28;20023;-70
2022/04/14 08:45:59;;;;;;;7.32;4.05;;;;;;;;;;5100450;28;20427;-71
2022/04/14 08:48:26;;;;;;;6.38;3.97;;;;;;;;;;5101030;28;20035;-76
2022/04/14 08:50:51;;;;;;;13.43;3.88;;;;;;;;;;5100844;28;20069;-70
2022/04/14 08:53:22;;;;;;;6.28;3.85;;;;;;;;;;5100225;28;20063;-71
2022/04/14 08:55:48;;;;;;;4.53;3.60;;;;;;;;;;5099862;28;20027;-71
2022/04/14 08:58:14;;;;;;;7.25;3.70;;;;;;;;;;5101226;28;20051;-71
2022/04/14 09:00:40;;;;;;;6.80;4.03;;;;;;;;;;5098026;28;20088;-71
2022/04/14 09:03:05;;;;;;;4.80;4.13;;;;;;;;;;5093610;28;20031;-71
2022/04/14 09:05:31;;;;;;;7.35;5.55;;;;;;;;;;5100700;28;20047;-71
2022/04/14 09:07:56;;;;;;;7.03;4.72;;;;;;;;;;5100345;28;20027;-69
2022/04/14 09:10:22;;;;;;;8.73;6.60;;;;;;;;;;5101090;28;20086;-70
2022/04/14 09:12:48;;;;;;;7.10;4.68;;;;;;;;;;5100515;28;20023;-71
2022/04/14 09:15:14;;;;;;;4.28;3.65;;;;;;;;;;5100184;28;20782;-74
2022/04/14 09:17:40;;;;;;;4.03;3.53;;;;;;;;;;5100508;28;20016;-73
2022/04/14 09:20:24;;;;;;;6.22;4.18;;;;;;;;;;5091751;28;20023;-72
2022/04/14 09:23:09;;;;;;;6.03;3.80;;;;;;;;;;5098542;28;20027;-70
2022/04/14 09:25:34;;;;;;;4.18;3.50;;;;;;;;;;5101144;28;20043;-70
2022/04/14 09:28:07;;;;;;;5.00;4.32;;;;;;;;;;5101673;28;20058;-71
2022/04/14 09:30:32;;;;;;;6.57;5.20;;;;;;;;;;5092027;28;20595;-70
2022/04/14 09:32:58;;;;;;;6.40;4.30;;;;;;;;;;5088190;28;20034;-72
2022/04/14 09:35:23;;;;;;;12.77;8.30;;;;;;;;;;5088503;28;20032;-71
2022/04/14 09:38:12;;;;;;;7.63;5.60;;;;;;;;;;5087209;28;20408;-71
2022/04/14 09:40:37;;;;;;;7.32;4.70;;;;;;;;;;5087796;28;20039;-71
2022/04/14 09:43:04;;;;;;;8.82;6.20;;;;;;;;;;5087291;28;20031;-71
2022/04/14 09:45:30;;;;;;;6.93;4.97;;;;;;;;;;5087132;28;20072;-70
2022/04/14 09:48:18;;;;;;;5.28;3.83;;;;;;;;;;5086419;28;20369;-70
2022/04/14 09:50:47;;;;;;;6.10;3.63;;;;;;;;;;5088039;28;20107;-74
2022/04/14 09:53:14;;;;;;;7.55;3.75;;;;;;;;;;5074767;28;20351;-71
2022/04/14 09:55:54;;;;;;;3.80;3.15;;;;;;;;;;5100944;28;20105;-72
2022/04/14 09:58:20;;;;;;;5.53;3.50;;;;;;;;;;5089462;28;21762;-70
2022/04/14 10:00:46;;;;;;;5.93;3.42;;;;;;;;;;5086334;28;20110;-71
2022/04/14 10:03:13;;;;;;;5.70;3.83;;;;;;;;;;5085710;28;20062;-74
2022/04/14 10:05:39;;;;;;;4.35;2.88;;;;;;;;;;5087294;28;20128;-72
2022/04/14 10:08:07;;;;;;;4.40;2.65;;;;;;;;;;5086826;28;20072;-71
2022/04/14 10:10:33;;;;;;;4.43;3.03;;;;;;;;;;5088278;28;20031;-73
2022/04/14 10:13:08;;;;;;;4.25;2.90;;;;;;;;;;5100709;28;20019;-71
2022/04/14 10:15:34;;;;;;;4.57;3.00;;;;;;;;;;5100223;28;20020;-70
2022/04/14 10:18:03;;;;;;;6.40;3.78;;;;;;;;;;5099815;28;20077;-73
2022/04/14 10:20:29;;;;;;;8.38;4.40;;;;;;;;;;5100672;28;20039;-71
2022/04/14 10:22:54;;;;;;;7.22;3.47;;;;;;;;;;5099402;28;20011;-73
2022/04/14 10:25:20;;;;;;;5.13;3.63;;;;;;;;;;5099882;28;20030;-71
2022/04/14 10:27:46;;;;;;;7.20;5.10;;;;;;;;;;5099522;28;20039;-74
2022/04/14 10:30:14;;;;;;;6.22;3.78;;;;;;;;;;5100151;28;21133;-72
2022/04/14 10:32:42;;;;;;;4.25;3.17;;;;;;;;;;5100559;28;20472;-70
2022/04/14 10:35:08;;;;;;;5.07;2.90;;;;;;;;;;5100132;28;20027;-73
2022/04/14 10:37:36;;;;;;;3.78;3.42;;;;;;;;;;5100032;28;20026;-70
2022/04/14 10:40:01;;;;;;;3.40;3.10;;;;;;;;;;5086151;28;20028;-71
2022/04/14 10:42:27;;;;;;;17.65;12.10;;;;;;;;;;5084635;28;20035;-71
2022/04/14 10:44:53;;;;;;;68.50;45.88;;;;;;;;;;5085481;28;20028;-70
2022/04/14 10:47:37;;;;;;;8.38;5.15;;;;;;;;;;5083849;28;20034;-71
2022/04/14 10:50:03;;;;;;;5.95;3.13;;;;;;;;;;5082029;28;20035;-70
2022/04/14 10:52:28;;;;;;;3.80;3.15;;;;;;;;;;5096658;28;20028;-71
2022/04/14 10:55:00;;;;;;;7.20;3.67;;;;;;;;;;5088135;28;20385;-71
2022/04/14 10:57:35;;;;;;;5.25;3.63;;;;;;;;;;5084829;28;20113;-75
2022/04/14 11:00:01;;;;;;;7.60;2.92;;;;;;;;;;5084079;28;20111;-73
2022/04/14 11:02:46;;;;;;;6.18;3.88;;;;;;;;;;5084937;28;20130;-73
2022/04/14 11:05:32;;;;;;;5.05;3.50;;;;;;;;;;5088166;28;20024;-71
2022/04/14 11:08:16;;;;;;;5.90;3.85;;;;;;;;;;5088905;28;20349;-71
2022/04/14 11:10:51;;;;;;;9.82;6.40;;;;;;;;;;5088202;28;20450;-70
2022/04/14 11:13:16;;;;;;;5.28;3.90;;;;;;;;;;5093719;28;20030;-71
2022/04/14 11:15:41;;;;;;;6.22;3.13;;;;;;;;;;5104096;28;20019;-74
2022/04/14 11:18:07;;;;;;;3.38;2.65;;;;;;;;;;5102216;28;20020;-71
2022/04/14 11:20:44;;;;;;;5.10;2.70;;;;;;;;;;5100751;28;20427;-72
2022/04/14 11:23:13;;;;;;;4.43;3.30;;;;;;;;;;5102761;28;20051;-75
2022/04/14 11:25:41;;;;;;;4.93;3.38;;;;;;;;;;5102290;28;20024;-71
2022/04/14 11:28:24;;;;;;;4.25;3.45;;;;;;;;;;5103090;28;20031;-71
2022/04/14 11:30:50;;;;;;;5.30;2.80;;;;;;;;;;5103366;28;20028;-72
2022/04/14 11:33:22;;;;;;;6.82;5.00;;;;;;;;;;5103627;28;20046;-71
2022/04/14 11:35:48;;;;;;;5.93;3.70;;;;;;;;;;5103624;28;20043;-72
2022/04/14 11:38:31;;;;;;;5.45;4.45;;;;;;;;;;5103365;28;20384;-72
2022/04/14 11:40:57;;;;;;;7.32;5.80;;;;;;;;;;5102310;28;20142;-72
2022/04/14 11:43:23;;;;;;;7.30;6.20;;;;;;;;;;5084677;28;20431;-72
2022/04/14 11:45:50;;;;;;;5.85;5.35;;;;;;;;;;5102817;28;20042;-72
2022/04/14 11:48:15;;;;;;;5.70;4.10;;;;;;;;;;5103556;28;20049;-71
2022/04/14 11:50:40;;;;;;;5.28;3.65;;;;;;;;;;5103602;28;20031;-71
2022/04/14 11:53:05;;;;;;;4.85;3.47;;;;;;;;;;5103050;28;20028;-74
2022/04/14 11:55:38;;;;;;;5.80;3.47;;;;;;;;;;5103251;28;20020;-73
2022/04/14 11:58:11;;;;;;;8.38;3.40;;;;;;;;;;5102365;28;20054;-72
2022/04/14 12:00:42;;;;;;;4.35;2.80;;;;;;;;;;5103107;28;20027;-71
2022/04/14 12:03:08;;;;;;;5.03;3.28;;;;;;;;;;5102742;28;20027;-72
2022/04/14 12:05:34;;;;;;;3.60;2.70;;;;;;;;;;5102732;28;20357;-71
2022/04/14 12:08:09;;;;;;;6.07;3.30;;;;;;;;;;5102352;28;20015;-73
2022/04/14 12:10:35;;;;;;;4.80;3.10;;;;;;;;;;5101341;28;20051;-71
2022/04/14 12:13:07;;;;;;;4.97;3.00;;;;;;;;;;5103854;28;20640;-70
2022/04/14 12:15:32;;;;;;;4.20;3.00;;;;;;;;;;5102051;28;20020;-75
2022/04/14 12:18:05;;;;;;;3.00;2.65;;;;;;;;;;5103077;28;20027;-74
2022/04/14 12:20:34;;;;;;;4.25;3.08;;;;;;;;;;5101774;28;20035;-72
2022/04/14 12:23:00;;;;;;;5.28;2.88;;;;;;;;;;5102675;28;20015;-73
2022/04/14 12:25:27;;;;;;;5.57;3.63;;;;;;;;;;5103032;28;20034;-71
2022/04/14 12:27:53;;;;;;;3.58;2.45;;;;;;;;;;5102267;28;20031;-70
2022/04/14 12:30:20;;;;;;;3.50;2.72;;;;;;;;;;5103367;28;20091;-73
2022/04/14 12:32:47;;;;;;;7.15;2.75;;;;;;;;;;5102632;28;20015;-75
2022/04/14 12:35:28;;;;;;;3.42;2.53;;;;;;;;;;5103137;28;20031;-70
2022/04/14 12:37:54;;;;;;;4.68;3.03;;;;;;;;;;5101667;28;20563;-71
2022/04/14 12:40:24;;;;;;;5.43;4.10;;;;;;;;;;5102718;28;20028;-71
2022/04/14 12:42:49;;;;;;;5.75;3.20;;;;;;;;;;5102560;28;20530;-72
2022/04/14 12:45:15;;;;;;;4.93;3.13;;;;;;;;;;5102597;28;20111;-71
2022/04/14 12:47:42;;;;;;;4.28;2.55;;;;;;;;;;5102438;28;20104;-71
2022/04/14 12:50:07;;;;;;;4.35;2.60;;;;;;;;;;5102878;28;20031;-71
2022/04/14 12:52:33;;;;;;;3.67;2.80;;;;;;;;;;5102342;28;20031;-71
2022/04/14 12:54:59;;;;;;;4.43;2.63;;;;;;;;;;5103470;28;21062;-71
2022/04/14 12:57:25;;;;;;;4.10;2.75;;;;;;;;;;5100539;28;20047;-72
2022/04/14 13:00:01;;;;;;;6.50;2.78;;;;;;;;;;5102074;28;20106;-70
2022/04/14 13:02:26;;;;;;;3.67;2.30;;;;;;;;;;5102770;28;20030;-71
2022/04/14 13:05:03;;;;;;;4.97;2.97;;;;;;;;;;5102580;28;20024;-72
2022/04/14 13:07:29;;;;;;;4.32;2.60;;;;;;;;;;5102621;28;20110;-73
2022/04/14 13:09:58;;;;;;;2.92;2.63;;;;;;;;;;5102898;28;20098;-72
2022/04/14 13:12:37;;;;;;;3.15;2.50;;;;;;;;;;5100340;28;20038;-71
2022/04/14 13:15:02;;;;;;;3.92;2.60;;;;;;;;;;5100983;28;20039;-72
2022/04/14 13:17:27;;;;;;;6.20;3.30;;;;;;;;;;5102043;28;20358;-75
2022/04/14 13:19:54;;;;;;;2.67;2.20;;;;;;;;;;5092379;28;20358;-73
2022/04/14 13:22:20;;;;;;;2.67;2.40;;;;;;;;;;5098695;28;20042;-73
2022/04/14 13:24:46;;;;;;;3.92;2.47;;;;;;;;;;5101089;28;20031;-72
2022/04/14 13:27:11;;;;;;;3.80;2.33;;;;;;;;;;5102072;28;20032;-76
2022/04/14 13:29:36;;;;;;;3.75;2.47;;;;;;;;;;5101620;28;20059;-75
2022/04/14 13:32:02;;;;;;;5.30;2.72;;;;;;;;;;5102699;28;20446;-76
2022/04/14 13:34:27;;;;;;;3.65;2.83;;;;;;;;;;5103694;28;20114;-74
2022/04/14 13:36:58;;;;;;;6.47;3.88;;;;;;;;;;5103268;28;20035;-77
2022/04/14 13:39:23;;;;;;;4.82;3.35;;;;;;;;;;5102777;28;20192;-75
2022/04/14 13:41:49;;;;;;;3.10;2.47;;;;;;;;;;5103499;28;20130;-76
2022/04/14 13:44:14;;;;;;;8.95;3.95;;;;;;;;;;5103087;28;20031;-74
2022/04/14 13:46:40;;;;;;;6.32;3.50;;;;;;;;;;5095154;28;20032;-74
2022/04/14 13:49:05;;;;;;;4.88;2.88;;;;;;;;;;5086958;28;20023;-75
2022/04/14 13:51:31;;;;;;;5.15;2.72;;;;;;;;;;5087736;28;20346;-74
2022/04/14 13:53:58;;;;;;;7.20;3.50;;;;;;;;;;5087107;28;20030;-76
2022/04/14 13:56:24;;;;;;;5.70;5.10;;;;;;;;;;5091380;28;20031;-77
2022/04/14 13:58:49;;;;;;;4.10;3.05;;;;;;;;;;5102321;28;20055;-74
2022/04/14 14:01:15;;;;;;;6.05;2.92;;;;;;;;;;5103101;28;20675;-75
2022/04/14 14:03:40;;;;;;;4.57;2.50;;;;;;;;;;5092651;28;20442;-76
2022/04/14 14:06:05;;;;;;;3.35;2.40;;;;;;;;;;5086707;28;20031;-76
2022/04/14 14:08:31;;;;;;;5.10;2.60;;;;;;;;;;5087659;28;20039;-75
2022/04/14 14:10:56;;;;;;;7.05;3.38;;;;;;;;;;5090899;28;20031;-75
2022/04/14 14:13:22;;;;;;;3.22;2.55;;;;;;;;;;5096056;28;20030;-75
2022/04/14 14:15:47;;;;;;;3.42;2.22;;;;;;;;;;5104724;28;20334;-76
2022/04/14 14:18:12;;;;;;;3.50;2.10;;;;;;;;;;5105769;28;20035;-77
2022/04/14 14:20:39;;;;;;;6.32;3.05;;;;;;;;;;5102361;28;20031;-77
2022/04/14 14:23:05;;;;;;;5.65;2.92;;;;;;;;;;5101147;28;20023;-76
2022/04/14 14:25:31;;;;;;;3.42;2.30;;;;;;;;;;5089693;28;20032;-75
2022/04/14 14:27:57;;;;;;;4.38;2.38;;;;;;;;;;5101559;28;20080;-75
2022/04/14 14:30:22;;;;;;;4.13;2.80;;;;;;;;;;5089581;28;20058;-75
2022/04/14 14:32:48;;;;;;;2.58;2.10;;;;;;;;;;5097310;28;20066;-76
2022/04/14 14:35:16;;;;;;;3.13;2.30;;;;;;;;;;5089393;28;20096;-73